MMSD 090454Z 32005KT 12SM SKC 18/15 A3001= 090454

MMSD 090350Z 29005KT 12SM SKC 20/16 A3000= 090350

MMSD 090250Z 00000KT 12SM FEW220 21/16 A2998 RMK SLP141 52005 955 8/008= 090252

MMSD 090145Z 20003KT 12SM FEW220 22/17 A2997 RMK 8/008= 090145

MMSD 090048Z 15005KT 12SM FEW220 23/17 A2996 RMK 8/008= 090048

MMSD 082345Z 15006KT 12SM FEW220 24/17 A2995 RMK 8/008= 082345

MMSD 082245Z 14009KT 12SM FEW220 26/17 A2995 RMK 8/008= 082245

MMSD 082141Z 13011KT 12SM FEW200 26/16 A2995 RMK 8/008= 082143

MMSD 082042Z 12012KT 12SM BKN200 26/15 A2996 RMK SLP129 57024 910 8/008= 082043

MMSD 081946Z 13011KT 12SM BKN200 28/13 A2998 RMK 8/008= 081946

MMSD 081849Z 13006KT 12SM BKN200 27/12 A3000 RMK 8/008= 081849

MMSD 081745Z 11004KT 12SM FEW150 BKN200 26/13 A3003 RMK SLP153 52001 910 8/038= 081746

MMSD 081640Z 31004KT 12SM SCT150 BKN200 23/10 A3004 RMK 8/038= 081640

MMSD 081543Z 25004KT 12SM SCT150 SCT200 20/09 A3004 RMK 8/038= 081543

MMSD 081451Z 32003KT 12SM SCT150 SCT200 16/07 A3003 RMK SLP154 5//// 917 8/038= 081451

MMSD 081340Z 33005KT 12SM FEW150 SCT200 15/07 A3000 RMK 8/038 RTS= 081340

MMSD 080455Z 35005KT 8SM FEW160 SCT250 19/13 A3002 RMK 8/038= 080455

MMSD 080350Z 26006KT 8SM FEW160 SCT250 20/14 A3001 RMK 8/038= 080351

MMSD 080247Z 25005KT 8SM FEW160 20/15 A3000 RMK SLP146 52015 961 8/030 CI= 080249

MMSD 080148Z 19005KT 8SM FEW160 22/15 A2999 RMK 8/030= 080149

MMSD 080040Z 17005KT 10SM SKC 23/15 A2997 RMK CI= 080040

COR MMSD 072359Z 16006KT 10SM SKC 24/15 A2996 RMK SLP130 51003 960 CI= 080004

MMSD 072359Z RTD 16006KT 10SM SKC 24/15 A2996 RMK CI= 072359

MMSD 072245Z 13012KT 10SM SKC 26/13 A2995= 072246

MMSD 072140Z 16010KT 10SM SKC 27/09 A2994 RMK CI= 072141

MMSD 072045Z 14011KT 12SM FEW200 27/07 A2995 RMK SLP126 57024 990 8/004= 072046

MMSD 071941Z 16011KT 12SM SCT200 28/06 A2997 RMK 8/004= 071942

MMSD 071847Z 06005KT 12SM BKN200 28/02 A3000 RMK 8/008= 071848

MMSD 071753Z 06004KT 12SM BKN200 27/04 A3002 RMK SLP150 52003 940 8/008= 071754

MMSD 071645Z 01002KT 12SM BKN200 24/09 A3004 RMK 8/008 AC= 071646

MMSD 071547Z 36004KT 12SM SCT120 BKN200 19/09 A3003 RMK 8/038= 071547

MMSD 071447Z 30005KT 12SM BKN120 16/11 A3001 RMK SLP149 5//// 927 8/070= 071447

MMSD 071345Z 30004KT 12SM BKN120 16/09 A3001 RMK 8/070 RTS= 071346

MMSD 070449Z 25005KT 8SM SKC 19/15 A3003= 070449

MMSD 070340Z 25005KT 8SM SKC 20/15 A3003= 070340

MMSD 070244Z 27005KT 8SM SKC 22/15 A3001 RMK AC= 070244

MMSD 070140Z 30005KT 8SM SKC 23/15 A3001 RMK AC= 070141

MMSD 070041Z 18010KT 8SM SKC 24/15 A3000 RMK CU= 070042

MMSD 062341Z 13010KT 10SM SKC 25/15 A2999 RMK SLP139 54000 911= 062344

MMSD 062246Z 14012KT 10SM SKC 26/15 A2998 RMK CU= 062252

MMSD 062142Z 15012KT 10SM FEW040 SCT250 27/14 A2998 RMK 8/108= 062143

MMSD 062043Z 16009KT 12SM SKC 27/14 A2998 RMK SLP139 52001 9// CI= 062043

MMSD 061954Z 05004KT 12SM SKC 29/08 A2999= 061956

MMSD 061856Z RTD 10002KT 12SM SKC 28/09 A3001= 061919

MMSD 061751Z 32005KT 12SM SKC 26/12 A3006= 061751

MMSD 061645Z 32006KT 12SM SKC 25/14 A3007= 061646

MMSD 061541Z 31004KT 12SM FEW220 22/13 A3006 RMK 8/008= 061542

MMSD 061456Z RTD 27004KT 12SM FEW220 18/12 A3005 RMK 8/008= 061500

MMSD 061406Z RTD 29006KT 12SM SCT220 17/11 A3004 RMK 8/007 RTS= 061412

MMSD 060440Z 28004KT 8SM FEW160 SCT250 22/14 A3000 RMK 8/038= 060440